Time;durP1;ratioP1;P1;durP2;ratioP2;P2;SDS_P1;SDS_P2;PMS_P1;PMS_P2;Temp;Humidity;BMP_temperature;BMP_pressure;BME280_temperature;BME280_humidity;BME280_pressure;Samples;Min_cycle;Max_cycle;Signal;HPM_P1;HPM_P2
2024/01/21 00:02:10;;;;;;;104.07;26.07;;;;;;;-1.58;47.91;100997.28;10374636;28;20244;-72
2024/01/21 00:07:11;;;;;;;184.50;29.57;;;;;;;-1.58;48.11;101003.41;10368655;28;20295;-72
2024/01/21 00:12:13;;;;;;;69.73;26.13;;;;;;;2.30;42.11;100750.59;10375983;28;20212;-74
2024/01/21 00:17:17;;;;;;;99.43;27.53;;;;;;;1.00;43.41;100992.06;10390115;28;20221;-72
2024/01/21 00:22:18;;;;;;;96.53;25.67;;;;;;;0.51;45.38;100853.56;10378316;28;20225;-72
2024/01/21 00:27:20;;;;;;;91.83;24.10;;;;;;;-0.18;46.14;100957.63;10378275;28;20323;-72
2024/01/21 00:32:21;;;;;;;118.53;23.73;;;;;;;-1.44;50.40;100778.69;10375601;28;20214;-73
2024/01/21 00:37:23;;;;;;;148.27;24.30;;;;;;;-1.27;48.07;101050.94;10420072;28;20586;-73
2024/01/21 00:42:25;;;;;;;55.60;23.57;;;;;;;1.79;44.25;100674.03;10408868;28;20212;-73
2024/01/21 00:47:27;;;;;;;58.97;26.13;;;;;;;-0.06;47.51;100699.06;10421617;28;20235;-73
2024/01/21 00:52:28;;;;;;;61.73;24.30;;;;;;;-1.35;48.35;101046.06;10409482;28;20250;-72
2024/01/21 00:57:30;;;;;;;55.33;22.33;;;;;;;1.16;45.85;100665.06;10415884;28;20676;-72
2024/01/21 01:02:32;;;;;;;62.70;24.23;;;;;;;-1.34;50.21;100786.91;10411551;28;20231;-73
2024/01/21 01:07:34;;;;;;;40.50;20.77;;;;;;;-0.51;48.25;100800.78;10432924;28;20538;-72
2024/01/21 01:12:36;;;;;;;36.63;17.07;;;;;;;-0.74;49.39;100636.44;10419174;28;20245;-74
2024/01/21 01:17:38;;;;;;;68.87;18.67;;;;;;;-2.09;50.16;100957.78;10414992;28;20235;-72
2024/01/21 01:22:39;;;;;;;31.27;15.93;;;;;;;-2.44;51.41;100867.69;10408767;28;20236;-72
2024/01/21 01:27:41;;;;;;;31.27;15.90;;;;;;;-0.75;50.13;100505.97;10424518;28;20266;-72
2024/01/21 01:32:43;;;;;;;35.70;18.60;;;;;;;-0.68;48.07;100791.19;10416325;28;20262;-74
2024/01/21 01:37:44;;;;;;;34.13;17.67;;;;;;;-1.22;48.85;100867.69;10417482;28;20491;-73
2024/01/21 01:42:56;;;;;;;37.87;17.67;;;;;;;0.21;48.03;100533.31;10418326;28;20300;-74
2024/01/21 01:47:58;;;;;;;30.27;17.60;;;;;;;-0.54;48.56;100643.19;10414524;28;20247;-75
2024/01/21 01:53:00;;;;;;;34.40;17.27;;;;;;;1.86;44.78;100497.59;10413698;28;20244;-73
2024/01/21 01:58:02;;;;;;;37.43;18.73;;;;;;;1.21;45.49;100578.59;10420838;28;20298;-75
2024/01/21 02:03:04;;;;;;;38.57;17.87;;;;;;;1.69;44.59;100570.94;10411470;28;20529;-75
2024/01/21 02:08:06;;;;;;;34.37;16.80;;;;;;;0.62;45.34;100782.66;10411643;28;20236;-74
2024/01/21 02:13:07;;;;;;;35.43;18.37;;;;;;;-0.57;47.19;100870.31;10418100;28;20314;-72
2024/01/21 02:18:09;;;;;;;34.57;18.37;;;;;;;1.36;44.61;100645.31;10418105;28;20266;-73
2024/01/21 02:23:12;;;;;;;36.23;18.50;;;;;;;1.95;43.07;100684.41;10407489;28;20263;-75
2024/01/21 02:28:13;;;;;;;34.47;18.57;;;;;;;1.86;43.44;100729.88;10413398;28;20232;-72
2024/01/21 02:33:15;;;;;;;36.60;18.67;;;;;;;1.40;43.77;100865.69;10406410;28;20231;-72
2024/01/21 02:38:17;;;;;;;25.40;16.53;;;;;;;-1.07;47.73;100837.13;10420947;28;20351;-74
2024/01/21 02:43:18;;;;;;;25.00;16.33;;;;;;;-0.57;49.35;100546.91;10408620;28;20318;-75
2024/01/21 02:48:20;;;;;;;25.80;14.70;;;;;;;-1.77;48.90;100902.88;10416895;28;20227;-74
2024/01/21 02:53:22;;;;;;;29.77;16.40;;;;;;;-0.61;48.27;100617.22;10411808;28;20968;-74
2024/01/21 02:58:23;;;;;;;27.17;15.57;;;;;;;-0.75;48.09;100655.78;10417194;28;20228;-74
2024/01/21 03:03:25;;;;;;;26.10;12.87;;;;;;;-2.72;49.72;101032.31;10415870;28;20242;-74
2024/01/21 03:08:27;;;;;;;25.33;15.63;;;;;;;-2.42;49.94;100976.81;10424238;28;20248;-74
2024/01/21 03:13:28;;;;;;;32.13;16.97;;;;;;;-1.37;50.30;100572.63;10416808;28;20237;-74
2024/01/21 03:18:30;;;;;;;31.90;17.17;;;;;;;-0.73;48.28;100594.28;10419683;28;20239;-74
2024/01/21 03:23:32;;;;;;;33.53;16.10;;;;;;;-1.83;48.57;100898.78;10413798;28;20246;-74
2024/01/21 03:28:33;;;;;;;30.27;15.27;;;;;;;0.81;46.07;100470.56;10421587;28;20235;-74
2024/01/21 03:33:35;;;;;;;29.37;16.57;;;;;;;1.40;44.19;100554.47;10409152;28;20259;-74
2024/01/21 03:38:37;;;;;;;21.50;13.90;;;;;;;-1.15;45.93;100962.78;10418785;28;21030;-74
2024/01/21 03:43:39;;;;;;;30.83;15.73;;;;;;;-1.07;48.47;100587.56;10417222;28;20242;-72
2024/01/21 03:48:40;;;;;;;25.53;15.03;;;;;;;-0.26;45.75;100797.59;10425149;28;20318;-74
2024/01/21 03:53:42;;;;;;;26.07;14.87;;;;;;;1.27;44.36;100556.22;10418134;28;20242;-74
2024/01/21 03:58:44;;;;;;;33.10;16.50;;;;;;;1.59;43.32;100619.97;10414061;28;20710;-74
2024/01/21 04:03:46;;;;;;;33.27;17.33;;;;;;;0.44;45.04;100755.69;10418531;28;20637;-74
2024/01/21 04:08:47;;;;;;;27.43;16.87;;;;;;;0.70;44.91;100716.31;10418237;28;20290;-74
2024/01/21 04:13:49;;;;;;;35.77;18.50;;;;;;;1.76;43.34;100571.34;10414951;28;20256;-74
2024/01/21 04:18:51;;;;;;;33.27;17.53;;;;;;;0.59;44.64;100751.22;10424137;28;20236;-74
2024/01/21 04:23:52;;;;;;;36.40;19.30;;;;;;;0.49;45.06;100765.91;10415250;28;20235;-74
2024/01/21 04:28:54;;;;;;;37.27;19.27;;;;;;;0.38;45.01;100827.16;10423802;28;20235;-72
2024/01/21 04:33:56;;;;;;;36.57;19.53;;;;;;;0.29;44.89;100802.22;10415449;28;20327;-72
2024/01/21 04:38:57;;;;;;;37.53;19.87;;;;;;;0.43;44.90;100759.25;10418808;28;20665;-70
2024/01/21 04:43:59;;;;;;;42.50;20.37;;;;;;;0.29;45.42;100780.28;10422226;28;20261;-72
2024/01/21 04:49:01;;;;;;;39.57;20.07;;;;;;;0.45;45.22;100707.31;10465361;28;20232;-72
2024/01/21 04:54:02;;;;;;;37.33;20.83;;;;;;;1.35;43.52;100670.81;10459179;28;20241;-72
2024/01/21 04:59:04;;;;;;;42.30;22.27;;;;;;;1.21;44.23;100705.16;10463008;28;20614;-72
2024/01/21 05:04:06;;;;;;;33.80;19.93;;;;;;;0.94;45.03;100634.84;10461935;28;20624;-72
2024/01/21 05:09:09;;;;;;;31.33;17.87;;;;;;;-2.07;48.42;101053.00;10465238;28;20242;-72
2024/01/21 05:14:11;;;;;;;35.03;17.63;;;;;;;-1.87;49.01;100941.84;10459224;28;20706;-72
2024/01/21 05:19:14;;;;;;;28.13;16.43;;;;;;;-0.72;47.79;100666.97;10459077;28;20267;-72
2024/01/21 05:24:16;;;;;;;29.57;16.53;;;;;;;-0.07;46.45;100614.00;10467968;28;20301;-72
2024/01/21 05:29:18;;;;;;;35.10;17.67;;;;;;;0.41;45.64;100605.75;10442169;28;20337;-72
2024/01/21 05:34:20;;;;;;;31.90;18.17;;;;;;;0.34;45.66;100640.47;10449000;28;20242;-72
2024/01/21 05:39:21;;;;;;;34.37;16.57;;;;;;;-0.69;46.52;100784.22;10460949;28;20237;-72
2024/01/21 05:44:23;;;;;;;33.97;18.43;;;;;;;0.73;44.82;100578.25;10463041;28;20237;-71
2024/01/21 05:49:26;;;;;;;29.83;17.10;;;;;;;-1.27;46.96;100907.31;10462939;28;20253;-72
2024/01/21 05:54:28;;;;;;;28.83;16.60;;;;;;;-0.78;47.15;100740.06;10465773;28;20276;-71
2024/01/21 05:59:30;;;;;;;33.40;17.40;;;;;;;1.37;43.87;100567.84;10462624;28;20237;-72
2024/01/21 06:04:31;;;;;;;27.53;16.53;;;;;;;-0.80;47.10;100806.69;10462492;28;20280;-71
2024/01/21 06:09:33;;;;;;;35.87;18.83;;;;;;;-0.71;46.77;100780.84;10461826;28;20235;-72
2024/01/21 06:14:34;;;;;;;34.47;17.93;;;;;;;-1.27;47.52;100872.34;10461685;28;20717;-72
2024/01/21 06:19:36;;;;;;;33.90;19.63;;;;;;;-0.02;46.51;100592.66;10458882;28;20325;-72
2024/01/21 06:24:38;;;;;;;36.17;19.03;;;;;;;1.12;43.67;100758.47;10456959;28;20229;-71
2024/01/21 06:29:43;;;;;;;36.03;19.23;;;;;;;-0.51;47.02;100638.59;10461946;28;20242;-72
2024/01/21 06:34:44;;;;;;;36.43;18.60;;;;;;;-0.49;46.10;100789.22;10459043;28;20591;-72
2024/01/21 06:39:46;;;;;;;35.67;19.17;;;;;;;0.50;44.92;100707.03;10459777;28;20241;-71
2024/01/21 06:45:00;;;;;;;37.30;20.00;;;;;;;1.90;42.37;100620.50;10459724;28;20233;-72
2024/01/21 06:50:02;;;;;;;32.27;19.10;;;;;;;1.43;43.03;100704.59;10461956;28;20785;-72
2024/01/21 06:55:05;;;;;;;37.77;20.30;;;;;;;0.47;43.35;100904.75;10468836;28;20265;-71
2024/01/21 07:00:07;;;;;;;34.97;20.00;;;;;;;1.39;42.66;100764.63;10466772;28;20650;-71
2024/01/21 07:05:09;;;;;;;37.17;19.93;;;;;;;0.43;44.27;100795.28;10465273;28;20231;-72
2024/01/21 07:10:13;;;;;;;40.43;20.33;;;;;;;0.61;43.86;100817.00;10459247;28;20605;-71
2024/01/21 07:15:15;;;;;;;41.47;21.43;;;;;;;1.21;42.82;100748.16;10465480;28;20358;-72
2024/01/21 07:20:16;;;;;;;40.23;20.67;;;;;;;1.36;42.96;100748.16;10444439;28;20252;-73
2024/01/21 07:25:18;;;;;;;34.47;19.40;;;;;;;0.75;43.05;100950.50;10464279;28;20230;-72
2024/01/21 07:30:20;;;;;;;34.50;17.90;;;;;;;2.23;42.16;100640.19;10468858;28;20250;-71
2024/01/21 07:35:21;;;;;;;38.27;19.83;;;;;;;1.91;41.66;100733.06;10464574;28;20290;-72
2024/01/21 07:40:23;;;;;;;37.47;20.47;;;;;;;0.86;43.19;100882.19;10470062;28;20632;-72
2024/01/21 07:45:25;;;;;;;36.23;20.20;;;;;;;0.11;44.61;100895.44;10469224;28;20687;-72
2024/01/21 07:50:30;;;;;;;34.70;21.00;;;;;;;0.06;44.50;100885.19;10471171;28;20277;-72
2024/01/21 07:55:31;;;;;;;38.20;21.13;;;;;;;1.14;43.17;100698.59;10470608;28;20318;-71
2024/01/21 08:00:33;;;;;;;32.33;21.50;;;;;;;0.68;43.63;100798.09;10471083;28;20258;-72
2024/01/21 08:05:35;;;;;;;51.13;28.40;;;;;;;0.06;42.79;101115.97;10449959;28;20245;-72
2024/01/21 08:10:37;;;;;;;37.00;21.87;;;;;;;1.65;42.36;100746.22;10470034;28;20234;-72
2024/01/21 08:15:38;;;;;;;42.97;22.93;;;;;;;0.31;43.01;101065.44;10469302;28;20264;-72
2024/01/21 08:20:40;;;;;;;36.53;20.60;;;;;;;0.59;43.19;101005.91;10453201;28;20231;-72
2024/01/21 08:25:42;;;;;;;37.33;22.23;;;;;;;0.99;42.12;100925.31;10450425;28;20664;-72
2024/01/21 08:30:44;;;;;;;32.27;19.70;;;;;;;-2.04;47.74;100983.78;10466586;28;20291;-72
2024/01/21 08:35:45;;;;;;;38.30;19.50;;;;;;;-0.10;46.17;100610.72;10450578;28;20234;-72
2024/01/21 08:40:47;;;;;;;30.03;18.60;;;;;;;-0.95;46.02;100923.19;10441771;28;20249;-72
2024/01/21 08:45:49;;;;;;;42.13;24.37;;;;;;;0.51;42.79;100929.97;10453657;28;20585;-72
2024/01/21 08:50:50;;;;;;;40.07;24.80;;;;;;;1.20;42.95;100840.56;10456141;28;20253;-72
2024/01/21 08:55:52;;;;;;;45.97;25.13;;;;;;;1.47;42.91;100745.63;10458028;28;20769;-72
2024/01/21 09:00:53;;;;;;;37.80;20.60;;;;;;;0.00;44.53;100896.06;10455851;28;20241;-71
2024/01/21 09:05:55;;;;;;;32.90;19.63;;;;;;;-0.03;46.17;100650.66;10452203;28;20316;-76
2024/01/21 09:10:57;;;;;;;40.53;23.33;;;;;;;1.61;42.57;100723.63;10447083;28;20308;-73
2024/01/21 09:15:59;;;;;;;35.27;21.80;;;;;;;0.64;44.47;100696.47;10456563;28;20250;-74
2024/01/21 09:21:01;;;;;;;36.30;21.57;;;;;;;-1.83;47.56;100943.41;10440021;28;20268;-73
2024/01/21 09:26:02;;;;;;;38.47;21.23;;;;;;;-0.85;46.56;100797.38;10450179;28;20234;-73
2024/01/21 09:31:04;;;;;;;28.03;17.90;;;;;;;0.33;45.11;100681.75;10452024;28;20268;-73
2024/01/21 09:36:06;;;;;;;28.17;17.30;;;;;;;0.96;43.73;100774.44;10456606;28;20331;-73
2024/01/21 09:41:10;;;;;;;28.97;18.87;;;;;;;0.94;43.76;100834.31;10450198;28;20314;-73
2024/01/21 09:46:12;;;;;;;31.27;20.93;;;;;;;1.55;42.94;100739.88;10453456;28;20232;-73
2024/01/21 09:51:14;;;;;;;33.27;21.30;;;;;;;0.74;43.54;100964.66;10458735;28;20251;-73
2024/01/21 09:56:18;;;;;;;37.97;21.57;;;;;;;1.55;43.29;100742.50;10457143;28;20322;-72
2024/01/21 10:01:21;;;;;;;28.60;18.97;;;;;;;1.11;43.61;100754.16;10460804;28;20235;-72
2024/01/21 10:06:25;;;;;;;29.43;17.70;;;;;;;-1.76;47.46;101107.50;10458606;28;20322;-73
2024/01/21 10:11:27;;;;;;;25.17;17.17;;;;;;;1.32;44.61;100680.72;10464152;28;20234;-74
2024/01/21 10:16:28;;;;;;;30.93;18.23;;;;;;;0.97;43.56;100972.03;10461998;28;20245;-72
2024/01/21 10:21:30;;;;;;;28.67;17.70;;;;;;;-1.52;48.39;101159.78;10459238;28;20238;-71
2024/01/21 10:26:32;;;;;;;30.70;20.57;;;;;;;-1.07;48.90;100894.94;10455207;28;20235;-72
2024/01/21 10:31:34;;;;;;;32.17;20.10;;;;;;;0.75;45.77;100776.59;10431201;28;20572;-74
2024/01/21 10:36:35;;;;;;;32.33;18.87;;;;;;;0.01;46.72;101012.72;10443285;28;20318;-72
2024/01/21 10:41:39;;;;;;;26.90;17.40;;;;;;;-0.51;47.98;100984.84;10443459;28;20235;-73
2024/01/21 10:46:42;;;;;;;23.03;14.40;;;;;;;-0.46;47.75;101009.97;10432219;28;20231;-72
2024/01/21 10:51:46;;;;;;;22.40;15.90;;;;;;;0.91;44.96;101045.34;10446687;28;20632;-72
2024/01/21 10:56:48;;;;;;;23.07;15.10;;;;;;;0.33;46.40;101020.59;10445523;28;20243;-74
2024/01/21 11:06:22;;;;;;;24.40;17.63;;;;;;;-0.07;49.14;100702.63;10516574;27;20367;-73
2024/01/21 11:11:25;;;;;;;24.23;16.23;;;;;;;0.21;48.30;100848.38;10433997;28;20240;-73
2024/01/21 11:16:28;;;;;;;22.23;15.67;;;;;;;-1.82;51.92;100963.47;10433911;28;20689;-73
2024/01/21 11:21:30;;;;;;;24.83;15.77;;;;;;;0.88;48.21;100698.47;10455417;28;20239;-73
2024/01/21 11:26:35;;;;;;;19.67;13.63;;;;;;;-0.03;50.85;100656.75;10434833;28;20247;-73
2024/01/21 11:31:37;;;;;;;11.97;9.80;;;;;;;0.10;50.12;100720.03;10436154;28;20328;-73
2024/01/21 11:36:39;;;;;;;19.50;13.50;;;;;;;2.36;46.40;100643.66;10391611;28;20237;-71
2024/01/21 11:41:43;;;;;;;18.47;13.40;;;;;;;0.46;48.50;100982.06;10423177;28;20265;-74
2024/01/21 11:46:46;;;;;;;19.17;12.33;;;;;;;1.16;47.45;100899.72;10434977;28;20264;-71
2024/01/21 11:51:48;;;;;;;15.07;11.67;;;;;;;0.51;49.18;100914.16;10434143;28;20287;-70
2024/01/21 11:56:52;;;;;;;16.13;13.30;;;;;;;1.24;48.32;100724.25;10433619;28;20716;-71
2024/01/21 12:01:56;;;;;;;20.40;14.63;;;;;;;2.04;46.97;100718.06;10432462;28;20994;-75
2024/01/21 12:07:02;;;;;;;19.67;14.77;;;;;;;2.63;45.73;100791.47;10430212;28;20238;-74
2024/01/21 12:12:07;;;;;;;16.57;13.03;;;;;;;2.93;46.02;100609.66;10429170;28;20606;-74
2024/01/21 12:17:09;;;;;;;13.50;11.97;;;;;;;2.76;45.96;100758.91;10362894;28;20243;-73
2024/01/21 12:22:11;;;;;;;16.57;13.37;;;;;;;2.36;46.29;100861.09;10363655;28;20315;-75
2024/01/21 12:27:13;;;;;;;15.10;12.40;;;;;;;2.75;45.45;100855.84;10399067;28;20230;-75
2024/01/21 12:32:16;;;;;;;15.20;12.40;;;;;;;3.21;45.17;100843.81;10406107;28;20210;-75
2024/01/21 12:37:18;;;;;;;15.13;12.67;;;;;;;3.43;45.39;100782.28;10397752;28;20366;-73
2024/01/21 12:42:19;;;;;;;16.17;11.20;;;;;;;3.34;45.74;100806.75;10400059;28;20234;-74
2024/01/21 12:47:21;;;;;;;17.10;13.40;;;;;;;3.78;45.36;100758.47;10395564;28;20235;-72
2024/01/21 12:52:23;;;;;;;13.93;11.23;;;;;;;3.31;46.17;100801.69;10394424;28;20235;-74
2024/01/21 12:57:24;;;;;;;18.80;13.23;;;;;;;3.96;45.10;100724.41;10398208;28;20665;-74
2024/01/21 13:02:26;;;;;;;19.90;13.40;;;;;;;4.55;44.52;100726.03;10398989;28;20285;-74
2024/01/21 13:07:29;;;;;;;17.43;14.13;;;;;;;4.43;44.33;100818.94;10400552;28;20661;-71
2024/01/21 13:12:31;;;;;;;16.63;12.37;;;;;;;3.90;45.74;100845.88;10407935;28;20236;-71
2024/01/21 13:17:32;;;;;;;15.37;12.40;;;;;;;4.18;45.90;100781.06;10392498;28;20340;-73
2024/01/21 13:22:34;;;;;;;18.67;12.57;;;;;;;4.58;44.22;100897.28;10406219;28;20234;-72
2024/01/21 13:27:54;;;;;;;21.40;14.77;;;;;;;4.62;44.57;100897.88;10400554;28;20327;-73
2024/01/21 13:32:56;;;;;;;13.73;10.10;;;;;;;4.25;44.79;100948.34;10396177;28;20235;-73
2024/01/21 13:37:59;;;;;;;15.43;10.50;;;;;;;4.52;45.26;100847.38;10379963;28;20238;-69
2024/01/21 13:43:01;;;;;;;11.40;9.80;;;;;;;4.97;44.13;100783.72;10383282;28;20251;-72
2024/01/21 13:48:06;;;;;;;12.80;9.23;;;;;;;4.87;44.50;100798.69;10404363;28;20333;-72
2024/01/21 13:53:08;;;;;;;14.03;9.13;;;;;;;4.29;45.35;100881.78;10386444;28;20428;-72
2024/01/21 13:58:10;;;;;;;12.80;8.83;;;;;;;4.70;44.51;100818.59;10397271;28;20232;-73
2024/01/21 14:03:14;;;;;;;12.03;9.63;;;;;;;4.54;45.63;100757.97;10393274;28;20235;-72
2024/01/21 14:08:15;;;;;;;12.13;9.20;;;;;;;3.99;45.83;100933.44;10395225;28;20273;-73
2024/01/21 14:13:17;;;;;;;13.20;9.33;;;;;;;5.25;44.90;100691.25;10393918;28;20236;-74
2024/01/21 14:18:18;;;;;;;14.27;10.37;;;;;;;4.68;45.10;100870.91;10398968;28;20347;-69
2024/01/21 14:23:20;;;;;;;15.23;10.57;;;;;;;5.08;44.67;100796.13;10398673;28;20379;-72
2024/01/21 14:28:23;;;;;;;12.97;8.27;;;;;;;4.98;44.28;100819.91;10399925;28;20284;-71
2024/01/21 14:33:26;;;;;;;16.13;10.43;;;;;;;5.20;44.22;100759.78;10397610;28;20242;-69
2024/01/21 14:38:29;;;;;;;13.43;9.13;;;;;;;4.80;44.71;100882.38;10397680;28;20233;-71
2024/01/21 14:43:31;;;;;;;11.70;9.60;;;;;;;6.09;43.36;100691.28;10392419;28;20243;-69
2024/01/21 14:48:33;;;;;;;11.70;9.90;;;;;;;5.56;43.89;100819.66;10357151;28;20247;-70
2024/01/21 14:53:35;;;;;;;11.27;8.87;;;;;;;6.14;43.50;100691.72;10350024;28;20237;-69
2024/01/21 14:58:36;;;;;;;14.83;10.20;;;;;;;6.09;42.79;100850.72;10357096;28;20773;-68
2024/01/21 15:03:38;;;;;;;13.27;9.93;;;;;;;5.87;43.31;100823.31;10355127;28;20383;-72
2024/01/21 15:08:44;;;;;;;13.07;9.57;;;;;;;5.80;43.42;100840.69;10357159;28;20733;-71
2024/01/21 15:13:47;;;;;;;17.33;12.67;;;;;;;5.28;44.43;100884.75;10355182;28;20314;-71
2024/01/21 15:18:49;;;;;;;18.53;12.70;;;;;;;6.24;43.10;100801.59;10362885;28;20256;-71
2024/01/21 15:23:51;;;;;;;14.50;11.50;;;;;;;5.04;44.60;100936.16;10355985;28;20239;-72
2024/01/21 15:28:53;;;;;;;15.30;10.83;;;;;;;5.12;44.66;100855.97;10358958;28;20326;-70
2024/01/21 15:33:54;;;;;;;13.70;10.23;;;;;;;4.83;44.82;100913.94;10357095;28;20224;-71
2024/01/21 15:38:56;;;;;;;13.90;11.53;;;;;;;4.84;45.07;100889.13;10371766;28;20308;-72
2024/01/21 15:43:58;;;;;;;13.67;11.50;;;;;;;4.60;45.80;100899.81;10351870;28;20245;-73
2024/01/21 15:48:59;;;;;;;14.10;10.70;;;;;;;5.30;45.10;100797.88;10358949;28;20248;-72
2024/01/21 15:54:01;;;;;;;14.50;11.00;;;;;;;6.27;43.24;100752.63;10368170;28;20374;-73
2024/01/21 15:59:03;;;;;;;16.47;12.10;;;;;;;4.80;44.89;100961.94;10359658;28;20589;-69
2024/01/21 16:04:05;;;;;;;15.47;12.63;;;;;;;4.91;44.89;100922.16;10360873;28;20318;-70
2024/01/21 16:09:06;;;;;;;17.57;11.73;;;;;;;5.15;45.00;100855.72;10364024;28;20247;-71
2024/01/21 16:14:08;;;;;;;18.20;13.57;;;;;;;5.22;45.21;100821.56;10373840;28;20663;-69
2024/01/21 16:19:10;;;;;;;23.13;16.83;;;;;;;4.62;45.47;100943.78;10361814;28;20331;-72
2024/01/21 16:24:14;;;;;;;16.30;12.80;;;;;;;5.30;44.84;100800.53;10377869;28;20346;-70
2024/01/21 16:29:16;;;;;;;17.53;12.70;;;;;;;5.42;44.28;100785.41;10381743;28;20237;-70
2024/01/21 16:34:17;;;;;;;16.53;12.57;;;;;;;5.73;43.01;100868.75;10394007;28;20756;-72
2024/01/21 16:39:20;;;;;;;18.23;13.10;;;;;;;6.48;42.46;100741.97;10397796;28;20334;-69
2024/01/21 16:44:23;;;;;;;15.73;10.53;;;;;;;7.22;41.02;100775.34;10400323;28;20236;-67
2024/01/21 16:49:26;;;;;;;13.03;8.67;;;;;;;5.41;43.22;100917.31;10384879;28;20235;-68
2024/01/21 16:54:27;;;;;;;11.67;8.60;;;;;;;5.02;44.27;100940.72;10400583;28;20408;-67
2024/01/21 16:59:32;;;;;;;12.33;8.97;;;;;;;6.97;41.91;100750.94;10391067;28;20239;-68
2024/01/21 17:04:34;;;;;;;13.83;10.23;;;;;;;5.47;43.52;100972.59;10387118;28;20264;-69
2024/01/21 17:09:36;;;;;;;13.57;8.40;;;;;;;5.61;43.90;100845.88;10386647;28;20312;-67
2024/01/21 17:14:38;;;;;;;12.40;8.63;;;;;;;5.50;44.40;100775.00;10383878;28;20279;-69
2024/01/21 17:19:40;;;;;;;16.73;11.77;;;;;;;5.68;43.40;100905.47;10384538;28;20342;-68
2024/01/21 17:24:41;;;;;;;21.60;14.17;;;;;;;5.45;43.75;100936.50;10394530;28;20571;-68
2024/01/21 17:29:43;;;;;;;19.37;12.93;;;;;;;5.36;44.11;100903.56;10396040;28;20330;-73
2024/01/21 17:34:45;;;;;;;25.13;15.33;;;;;;;4.96;43.81;101028.75;10400835;28;20593;-70
2024/01/21 17:39:47;;;;;;;26.60;16.53;;;;;;;4.87;43.96;101022.34;10390083;28;20240;-72
2024/01/21 17:44:50;;;;;;;19.03;12.40;;;;;;;6.41;43.06;100739.00;10389491;28;20351;-72
2024/01/21 17:49:51;;;;;;;16.97;12.43;;;;;;;5.74;43.42;100856.31;10395433;28;20242;-72
2024/01/21 17:54:53;;;;;;;16.60;10.77;;;;;;;5.63;43.56;100887.25;10401730;28;20226;-72
2024/01/21 17:59:55;;;;;;;12.17;9.20;;;;;;;5.71;43.83;100830.84;10380616;28;20323;-71
2024/01/21 18:04:58;;;;;;;13.07;8.80;;;;;;;5.29;44.28;100857.25;10385810;28;20244;-72
2024/01/21 18:10:00;;;;;;;9.80;6.97;;;;;;;4.98;44.59;100822.56;10349063;28;20255;-74
2024/01/21 18:15:04;;;;;;;10.37;6.50;;;;;;;4.25;44.90;100957.13;10347841;28;20547;-72
2024/01/21 18:20:08;;;;;;;8.30;5.73;;;;;;;4.95;44.21;100859.94;10359063;28;20903;-73
2024/01/21 18:25:09;;;;;;;9.50;6.53;;;;;;;4.89;44.02;100855.94;10354439;28;20696;-67
2024/01/21 18:30:11;;;;;;;10.43;7.43;;;;;;;6.18;42.33;100849.94;10365804;28;20329;-70
2024/01/21 18:35:13;;;;;;;10.20;7.07;;;;;;;5.46;43.25;100882.44;10382818;28;20479;-69
2024/01/21 18:40:15;;;;;;;7.83;5.63;;;;;;;6.22;42.66;100753.03;10357150;28;20607;-70
2024/01/21 18:45:16;;;;;;;9.20;6.90;;;;;;;5.90;42.12;100917.84;10352987;28;20697;-74
2024/01/21 18:50:18;;;;;;;8.03;6.03;;;;;;;5.27;43.09;100971.50;10353782;28;20483;-72
2024/01/21 18:55:20;;;;;;;8.60;6.30;;;;;;;5.73;42.81;100884.69;10354490;28;20240;-70
2024/01/21 19:00:22;;;;;;;8.63;5.57;;;;;;;5.85;42.54;100883.66;10356629;28;20324;-68
2024/01/21 19:05:23;;;;;;;6.57;4.70;;;;;;;5.82;42.50;100877.78;10386104;28;20882;-69
2024/01/21 19:10:25;;;;;;;5.80;4.53;;;;;;;6.28;42.53;100711.78;10394344;28;20236;-70
2024/01/21 19:15:28;;;;;;;8.00;4.60;;;;;;;4.72;43.40;101002.28;10394871;28;20260;-71
2024/01/21 19:20:30;;;;;;;7.47;4.57;;;;;;;5.42;42.57;100960.63;10391944;28;20239;-70
2024/01/21 19:25:32;;;;;;;5.53;4.60;;;;;;;6.22;42.11;100784.09;10396167;28;20236;-66
2024/01/21 19:30:33;;;;;;;7.43;5.30;;;;;;;5.15;43.30;100914.09;10398960;28;20243;-69
2024/01/21 19:35:36;;;;;;;5.47;4.83;;;;;;;6.32;42.13;100734.47;10404508;28;20722;-70
2024/01/21 19:40:41;;;;;;;6.23;4.43;;;;;;;5.77;42.99;100755.13;10393929;28;20250;-75
2024/01/21 19:45:42;;;;;;;5.73;4.20;;;;;;;4.72;43.88;100848.47;10404175;28;20235;-72
2024/01/21 19:50:45;;;;;;;10.73;6.37;;;;;;;5.94;42.85;100624.38;10401058;28;20243;-68
2024/01/21 19:55:48;;;;;;;7.63;4.30;;;;;;;5.84;42.94;100634.97;10382429;28;20676;-69
2024/01/21 20:00:50;;;;;;;6.10;4.77;;;;;;;5.75;42.64;100736.66;10394778;28;20811;-67
2024/01/21 20:05:53;;;;;;;8.63;5.07;;;;;;;6.13;42.24;100687.38;10405385;28;20581;-69
2024/01/21 20:10:55;;;;;;;8.03;5.23;;;;;;;6.22;41.92;100736.25;10405168;28;20319;-71
2024/01/21 20:15:56;;;;;;;6.23;5.50;;;;;;;5.57;42.12;100862.97;10404325;28;20738;-68
2024/01/21 20:20:58;;;;;;;8.83;5.87;;;;;;;6.66;41.61;100656.19;10404117;28;20288;-67
2024/01/21 20:26:01;;;;;;;7.17;5.23;;;;;;;5.11;43.25;100767.53;10396385;28;20594;-69
2024/01/21 20:31:03;;;;;;;6.47;5.13;;;;;;;6.03;42.02;100707.75;10402034;28;20565;-69
2024/01/21 20:36:05;;;;;;;8.40;5.20;;;;;;;6.14;42.26;100677.59;10407619;28;20290;-66
2024/01/21 20:41:08;;;;;;;8.40;5.67;;;;;;;6.35;41.67;100633.19;10402361;28;20715;-67
2024/01/21 20:46:13;;;;;;;5.63;4.27;;;;;;;6.35;41.50;100611.91;10392722;28;20340;-68
2024/01/21 20:51:15;;;;;;;7.43;4.90;;;;;;;6.84;40.59;100661.72;10394820;28;20232;-71
2024/01/21 20:56:19;;;;;;;7.77;4.77;;;;;;;6.21;41.19;100695.53;10396339;28;20699;-68
2024/01/21 21:01:22;;;;;;;7.30;3.60;;;;;;;5.36;42.04;100683.25;10398284;28;20241;-69
2024/01/21 21:06:24;;;;;;;6.27;3.83;;;;;;;5.32;42.39;100597.75;10396201;28;20341;-68
2024/01/21 21:11:26;;;;;;;6.67;4.40;;;;;;;5.44;41.55;100633.03;10400433;28;20287;-67
2024/01/21 21:16:27;;;;;;;6.73;4.13;;;;;;;4.13;42.18;100873.28;10400942;28;20371;-69
2024/01/21 21:21:31;;;;;;;3.90;3.30;;;;;;;5.49;41.75;100487.44;10397818;28;20811;-69
2024/01/21 21:26:33;;;;;;;5.33;4.20;;;;;;;5.36;41.43;100585.03;10399563;28;20738;-70
2024/01/21 21:31:34;;;;;;;4.70;3.37;;;;;;;5.81;41.47;100417.41;10394231;28;20239;-70
2024/01/21 21:36:36;;;;;;;3.73;3.37;;;;;;;4.97;41.30;100664.38;10392848;28;20244;-69
2024/01/21 21:41:40;;;;;;;5.93;3.90;;;;;;;5.72;40.89;100558.16;10394422;28;20228;-70
2024/01/21 21:46:42;;;;;;;4.93;4.43;;;;;;;6.34;40.31;100464.00;10382323;28;20331;-70
2024/01/21 21:51:45;;;;;;;4.83;3.80;;;;;;;6.50;40.20;100529.94;10395855;28;20627;-70
2024/01/21 21:56:47;;;;;;;7.43;3.80;;;;;;;6.83;39.54;100543.81;10394281;28;20681;-68
2024/01/21 22:01:49;;;;;;;5.77;3.80;;;;;;;6.10;40.29;100508.78;10396316;28;20779;-70
2024/01/21 22:06:52;;;;;;;6.37;3.97;;;;;;;6.32;39.80;100545.72;10392732;28;20739;-69
2024/01/21 22:11:54;;;;;;;5.77;3.70;;;;;;;7.16;39.09;100467.97;10394243;28;20251;-69
2024/01/21 22:16:56;;;;;;;4.70;3.90;;;;;;;6.14;39.94;100596.03;10395015;28;20258;-70
2024/01/21 22:21:58;;;;;;;6.60;3.63;;;;;;;6.74;39.63;100496.75;10394505;28;20239;-69
2024/01/21 22:26:59;;;;;;;4.00;3.60;;;;;;;6.14;40.37;100565.97;10414828;22;20243;-36
2024/01/21 22:32:01;;;;;;;10.43;4.80;;;;;;;5.54;40.76;100661.44;10385498;28;20722;-34
2024/01/21 22:37:03;;;;;;;5.13;3.53;;;;;;;5.58;40.81;100687.59;10356679;28;20557;-35
2024/01/21 22:42:05;;;;;;;6.97;4.17;;;;;;;6.44;40.01;100583.66;10352349;28;20475;-35
2024/01/21 22:47:07;;;;;;;5.87;4.13;;;;;;;5.83;41.15;100645.72;10354733;28;20291;-35
2024/01/21 22:52:09;;;;;;;6.03;5.37;;;;;;;7.11;40.62;100408.19;10359800;28;20256;-35
2024/01/21 22:57:10;;;;;;;5.90;4.80;;;;;;;5.89;41.50;100610.63;10358755;28;20284;-35
2024/01/21 23:02:12;;;;;;;8.83;4.33;;;;;;;6.13;41.60;100477.44;10362396;28;20614;-35